createdAt,value
2022-08-21T00:01:44.630Z,0.90
2022-08-21T00:04:14.558Z,1.65
2022-08-21T00:06:47.641Z,0.30
2022-08-21T00:09:14.373Z,0.40
2022-08-21T00:11:41.197Z,0.65
2022-08-21T00:14:09.845Z,0.70
2022-08-21T00:16:36.806Z,0.77
2022-08-21T00:19:04.482Z,0.50
2022-08-21T00:21:31.200Z,1.85
2022-08-21T00:23:57.928Z,0.63
2022-08-21T00:26:24.900Z,0.43
2022-08-21T00:28:51.681Z,0.50
2022-08-21T00:31:19.040Z,0.85
2022-08-21T00:33:46.570Z,0.70
2022-08-21T00:36:14.243Z,0.32
2022-08-21T00:38:41.406Z,0.50
2022-08-21T00:41:13.524Z,0.40
2022-08-21T00:43:57.761Z,0.50
2022-08-21T00:46:28.254Z,0.50
2022-08-21T00:48:58.702Z,1.15
2022-08-21T00:51:38.341Z,0.40
2022-08-21T00:54:06.784Z,0.40
2022-08-21T00:56:41.079Z,0.50
2022-08-21T00:59:10.922Z,0.63
2022-08-21T01:01:38.147Z,0.32
2022-08-21T01:04:04.930Z,1.33
2022-08-21T01:06:31.753Z,0.40
2022-08-21T01:08:58.699Z,0.40
2022-08-21T01:11:25.827Z,1.40
2022-08-21T01:13:53.183Z,0.40
2022-08-21T01:16:22.391Z,0.50
2022-08-21T01:18:49.967Z,0.30
2022-08-21T01:21:21.132Z,0.60
2022-08-21T01:23:51.805Z,0.55
2022-08-21T01:26:22.498Z,0.45
2022-08-21T01:29:08.727Z,0.40
2022-08-21T01:31:35.400Z,0.40
2022-08-21T01:34:02.230Z,1.05
2022-08-21T01:36:29.351Z,0.30
2022-08-21T01:38:56.898Z,0.75
2022-08-21T01:41:23.732Z,0.38
2022-08-21T01:43:50.436Z,0.90
2022-08-21T01:46:17.258Z,0.45
2022-08-21T01:48:44.212Z,0.40
2022-08-21T01:51:11.722Z,0.98
2022-08-21T01:53:39.274Z,0.40
2022-08-21T01:56:12.532Z,0.40
2022-08-21T01:58:41.057Z,0.50
2022-08-21T02:01:07.963Z,0.73
2022-08-21T02:03:35.515Z,0.40
2022-08-21T02:06:04.917Z,0.30
2022-08-21T02:08:32.621Z,2.03
2022-08-21T02:10:59.546Z,0.68
2022-08-21T02:13:26.366Z,0.40
2022-08-21T02:15:53.077Z,0.75
2022-08-21T02:18:19.726Z,0.50
2022-08-21T02:20:49.422Z,0.40
2022-08-21T02:23:26.953Z,0.40
2022-08-21T02:25:57.906Z,1.77
2022-08-21T02:28:24.652Z,0.47
2022-08-21T02:30:53.368Z,0.50
2022-08-21T02:33:20.380Z,0.40
2022-08-21T02:35:48.308Z,0.40
2022-08-21T02:38:18.363Z,0.50
2022-08-21T02:40:47.876Z,1.00
2022-08-21T02:43:16.360Z,0.50
2022-08-21T02:45:45.050Z,1.08
2022-08-21T02:48:17.021Z,0.40
2022-08-21T02:50:52.069Z,0.52
2022-08-21T02:53:19.591Z,0.45
2022-08-21T02:55:48.554Z,0.55
2022-08-21T02:58:19.071Z,0.40
2022-08-21T03:00:46.009Z,0.40
2022-08-21T03:03:14.606Z,0.40
2022-08-21T03:05:41.457Z,0.32
2022-08-21T03:08:11.166Z,0.40
2022-08-21T03:10:43.616Z,0.85
2022-08-21T03:13:10.883Z,0.47
2022-08-21T03:15:38.371Z,0.55
2022-08-21T03:18:06.183Z,0.40
2022-08-21T03:20:33.527Z,0.45
2022-08-21T03:23:01.330Z,0.47
2022-08-21T03:25:40.299Z,0.70
2022-08-21T03:28:13.423Z,0.40
2022-08-21T03:30:42.649Z,0.60
2022-08-21T03:33:12.159Z,0.40
2022-08-21T03:35:39.708Z,0.57
2022-08-21T03:38:06.345Z,0.70
2022-08-21T03:40:33.066Z,0.60
2022-08-21T03:42:59.864Z,0.40
2022-08-21T03:45:27.086Z,1.75
2022-08-21T03:47:56.838Z,0.52
2022-08-21T03:50:26.009Z,0.32
2022-08-21T03:52:53.120Z,0.40
2022-08-21T03:55:20.258Z,0.32
2022-08-21T03:57:47.103Z,0.35
2022-08-21T04:00:15.415Z,0.95
2022-08-21T04:02:44.527Z,0.50
2022-08-21T04:05:12.839Z,0.52
2022-08-21T04:07:39.589Z,0.40
2022-08-21T04:10:08.002Z,1.02
2022-08-21T04:12:34.662Z,0.60
2022-08-21T04:15:02.780Z,0.32
2022-08-21T04:17:29.508Z,0.60
2022-08-21T04:19:56.180Z,0.50
2022-08-21T04:22:23.256Z,0.60
2022-08-21T04:24:50.752Z,0.93
2022-08-21T04:27:17.413Z,0.40
2022-08-21T04:29:44.087Z,0.40
2022-08-21T04:32:10.780Z,0.88
2022-08-21T04:34:37.499Z,0.45
2022-08-21T04:37:05.466Z,1.48
2022-08-21T04:39:32.305Z,0.43
2022-08-21T04:41:58.963Z,0.43
2022-08-21T04:44:25.674Z,1.08
2022-08-21T04:46:52.358Z,0.55
2022-08-21T04:49:19.029Z,0.50
2022-08-21T04:51:45.691Z,0.52
2022-08-21T04:54:23.742Z,0.50
2022-08-21T04:56:53.987Z,0.75
2022-08-21T04:59:27.503Z,0.63
2022-08-21T05:01:58.693Z,1.33
2022-08-21T05:04:31.017Z,0.80
2022-08-21T05:07:00.927Z,0.52
2022-08-21T05:09:28.322Z,0.55
2022-08-21T05:11:56.351Z,0.45
2022-08-21T05:14:22.998Z,0.63
2022-08-21T05:16:49.690Z,0.40
2022-08-21T05:19:16.457Z,0.57
2022-08-21T05:21:45.372Z,1.25
2022-08-21T05:24:12.435Z,0.40
2022-08-21T05:26:46.416Z,0.40
2022-08-21T05:29:16.397Z,0.40
2022-08-21T05:31:43.746Z,0.40
2022-08-21T05:34:10.487Z,0.43
2022-08-21T05:36:37.678Z,0.50
2022-08-21T05:39:04.703Z,1.92
2022-08-21T05:41:31.474Z,2.08
2022-08-21T05:44:01.011Z,0.40
2022-08-21T05:46:27.720Z,1.23
2022-08-21T05:48:54.349Z,0.40
2022-08-21T05:51:21.372Z,7.43
2022-08-21T05:53:48.368Z,0.40
2022-08-21T05:56:15.928Z,0.45
2022-08-21T05:58:43.024Z,0.50
2022-08-21T06:01:10.217Z,0.80
2022-08-21T06:03:40.247Z,0.40
2022-08-21T06:06:07.075Z,0.40
2022-08-21T06:08:34.993Z,0.55
2022-08-21T06:11:03.405Z,0.60
2022-08-21T06:13:30.314Z,0.40
2022-08-21T06:16:06.053Z,0.40
2022-08-21T06:18:33.518Z,0.50
2022-08-21T06:21:00.188Z,0.50
2022-08-21T06:23:32.971Z,0.50
2022-08-21T06:26:00.768Z,0.40
2022-08-21T06:28:27.842Z,0.30
2022-08-21T06:30:55.161Z,6.60
2022-08-21T06:33:22.274Z,0.85
2022-08-21T06:35:49.431Z,0.40
2022-08-21T06:38:16.590Z,0.47
2022-08-21T06:40:47.040Z,1.45
2022-08-21T06:43:16.925Z,1.55
2022-08-21T06:45:44.676Z,0.60
2022-08-21T06:48:15.656Z,0.70
2022-08-21T06:53:13.486Z,2.38
2022-08-21T06:55:42.743Z,0.30
2022-08-21T06:58:10.567Z,1.15
2022-08-21T07:00:40.537Z,0.40
2022-08-21T07:03:07.908Z,0.73
2022-08-21T07:05:35.077Z,0.50
2022-08-21T07:08:02.163Z,4.53
2022-08-21T07:10:29.752Z,0.50
2022-08-21T07:13:00.484Z,5.63
2022-08-21T07:15:28.684Z,2.17
2022-08-21T07:17:58.026Z,2.42
2022-08-21T07:20:25.166Z,0.57
2022-08-21T07:22:52.387Z,0.70
2022-08-21T07:25:19.594Z,0.35
2022-08-21T07:27:46.664Z,0.40
2022-08-21T07:30:13.826Z,0.50
2022-08-21T07:32:41.307Z,0.60
2022-08-21T07:35:08.565Z,3.63
2022-08-21T07:37:35.909Z,0.70
2022-08-21T07:40:03.061Z,0.95
2022-08-21T07:42:30.884Z,0.40
2022-08-21T07:44:57.993Z,0.85
2022-08-21T07:47:41.882Z,0.47
2022-08-21T07:50:10.041Z,0.60
2022-08-21T07:52:37.900Z,1.33
2022-08-21T07:55:06.715Z,0.68
2022-08-21T07:57:34.032Z,0.82
2022-08-21T08:00:01.204Z,0.30
2022-08-21T08:02:29.566Z,0.52
2022-08-21T08:05:00.019Z,0.98
2022-08-21T08:07:27.172Z,1.95
2022-08-21T08:09:54.438Z,0.40
2022-08-21T08:12:21.651Z,0.45
2022-08-21T08:14:48.843Z,0.70
2022-08-21T08:17:15.909Z,0.30
2022-08-21T08:19:42.957Z,1.15
2022-08-21T08:22:17.028Z,3.10
2022-08-21T08:24:44.374Z,1.52
2022-08-21T08:27:11.419Z,0.30
2022-08-21T08:29:38.551Z,0.40
2022-08-21T08:32:08.083Z,0.50
2022-08-21T08:34:35.741Z,0.50
2022-08-21T08:37:04.032Z,1.17
2022-08-21T08:39:33.544Z,1.20
2022-08-21T08:42:32.730Z,0.70
2022-08-21T08:44:57.452Z,0.45
2022-08-21T08:47:26.666Z,1.33
2022-08-21T08:50:05.747Z,0.70
2022-08-21T08:52:34.549Z,12.35
2022-08-21T08:55:20.892Z,0.60
2022-08-21T08:57:50.876Z,0.63
2022-08-21T09:00:19.619Z,0.40
2022-08-21T09:02:47.488Z,0.50
2022-08-21T09:05:22.880Z,1.05
2022-08-21T09:07:53.013Z,1.15
2022-08-21T09:10:43.158Z,0.45
2022-08-21T09:13:10.211Z,1.08
2022-08-21T09:15:57.380Z,1.20
2022-08-21T09:18:40.927Z,1.13
2022-08-21T09:21:14.000Z,1.50
2022-08-21T09:23:47.088Z,0.50
2022-08-21T09:26:14.191Z,0.73
2022-08-21T09:28:42.248Z,0.50
2022-08-21T09:31:13.354Z,1.35
2022-08-21T09:33:40.489Z,1.42
2022-08-21T09:36:07.725Z,1.02
2022-08-21T09:38:37.603Z,0.73
2022-08-21T09:41:09.724Z,0.40
2022-08-21T09:43:37.584Z,1.10
2022-08-21T09:46:22.158Z,0.40
2022-08-21T09:48:50.893Z,8.02
2022-08-21T09:51:25.451Z,4.57
2022-08-21T09:53:54.100Z,8.10
2022-08-21T09:56:42.594Z,4.57
2022-08-21T09:59:37.199Z,4.65
2022-08-21T10:02:23.211Z,5.93
2022-08-21T10:04:55.039Z,3.38
2022-08-21T10:07:23.821Z,5.35
2022-08-21T10:10:00.966Z,4.20
2022-08-21T10:12:33.762Z,8.15
2022-08-21T10:15:08.698Z,4.53
2022-08-21T10:17:35.947Z,5.97
2022-08-21T10:20:11.262Z,6.55
2022-08-21T10:22:44.409Z,4.25
2022-08-21T10:25:34.150Z,4.63
2022-08-21T10:28:13.824Z,6.10
2022-08-21T10:31:04.056Z,5.18
2022-08-21T10:33:43.456Z,5.72
2022-08-21T10:36:39.664Z,4.40
2022-08-21T10:39:26.591Z,4.90
2022-08-21T10:41:53.969Z,11.02
2022-08-21T10:44:41.566Z,12.98
2022-08-21T10:47:12.860Z,7.97
2022-08-21T10:49:45.951Z,5.82
2022-08-21T10:52:31.532Z,16.33
2022-08-21T10:55:01.655Z,8.18
2022-08-21T10:57:31.977Z,5.28
2022-08-21T11:00:04.323Z,8.50
2022-08-21T11:02:34.668Z,4.00
2022-08-21T11:05:04.241Z,6.55
2022-08-21T11:07:37.514Z,7.07
2022-08-21T11:10:51.343Z,5.70
2022-08-21T11:13:31.239Z,6.15
2022-08-21T11:16:08.946Z,6.00
2022-08-21T11:18:38.602Z,4.63
2022-08-21T11:21:08.740Z,6.03
2022-08-21T11:23:40.647Z,5.85
2022-08-21T11:26:11.137Z,7.50
2022-08-21T11:28:42.033Z,5.30
2022-08-21T11:31:13.344Z,3.50
2022-08-21T11:33:43.216Z,4.97
2022-08-21T11:36:22.396Z,5.22
2022-08-21T11:39:15.871Z,3.55
2022-08-21T11:41:58.830Z,5.40
2022-08-21T11:44:45.549Z,5.30
2022-08-21T11:47:20.742Z,6.47
2022-08-21T11:50:34.233Z,3.40
2022-08-21T11:53:06.387Z,4.00
2022-08-21T11:56:00.527Z,4.05
2022-08-21T11:58:31.249Z,3.08
2022-08-21T12:01:01.243Z,4.47
2022-08-21T12:03:42.244Z,3.80
2022-08-21T12:06:12.331Z,4.82
2022-08-21T12:08:44.059Z,3.03
2022-08-21T12:11:11.079Z,2.30
2022-08-21T12:13:42.290Z,3.65
2022-08-21T12:16:09.920Z,3.53
2022-08-21T12:18:38.990Z,3.00
2022-08-21T12:21:19.497Z,3.72
2022-08-21T12:24:05.267Z,3.95
2022-08-21T12:26:34.332Z,2.97
2022-08-21T12:29:17.906Z,2.60
2022-08-21T12:32:11.003Z,5.50
2022-08-21T12:34:40.365Z,4.47
2022-08-21T12:37:18.398Z,4.40
2022-08-21T12:39:46.601Z,4.07
2022-08-21T12:42:32.551Z,6.47
2022-08-21T12:45:05.696Z,4.18
2022-08-21T12:47:34.968Z,4.85
2022-08-21T12:50:09.649Z,3.67
2022-08-21T12:52:39.592Z,4.68
2022-08-21T12:55:08.206Z,2.92
2022-08-21T12:57:37.987Z,3.60
2022-08-21T13:00:12.851Z,3.97
2022-08-21T13:02:47.057Z,7.10
2022-08-21T13:05:17.163Z,5.28
2022-08-21T13:07:48.898Z,3.70
2022-08-21T13:10:19.481Z,6.82
2022-08-21T13:12:46.571Z,2.95
2022-08-21T13:15:14.201Z,4.60
2022-08-21T13:17:46.684Z,3.83
2022-08-21T13:20:28.433Z,3.35
2022-08-21T13:22:55.194Z,3.47
2022-08-21T13:25:28.163Z,3.42
2022-08-21T13:28:15.780Z,3.67
2022-08-21T13:30:46.651Z,4.10
2022-08-21T13:33:16.617Z,5.38
2022-08-21T13:36:01.577Z,4.32
2022-08-21T13:38:31.224Z,2.85
2022-08-21T13:41:24.611Z,2.42
2022-08-21T13:43:58.235Z,4.43
2022-08-21T13:46:26.593Z,2.13
2022-08-21T13:48:55.306Z,6.50
2022-08-21T13:51:22.635Z,3.63
2022-08-21T13:53:53.074Z,5.85
2022-08-21T13:56:25.450Z,3.10
2022-08-21T13:58:52.854Z,2.95
2022-08-21T14:01:24.465Z,4.78
2022-08-21T14:03:53.428Z,3.28
2022-08-21T14:06:22.996Z,3.28
2022-08-21T14:08:55.401Z,2.90
2022-08-21T14:11:22.966Z,3.92
2022-08-21T14:13:59.256Z,3.17
2022-08-21T14:16:28.088Z,3.60
2022-08-21T14:19:08.718Z,3.28
2022-08-21T14:21:41.348Z,3.33
2022-08-21T14:24:13.291Z,2.88
2022-08-21T14:26:51.834Z,3.92
2022-08-21T14:29:25.015Z,3.60
2022-08-21T14:32:00.445Z,3.72
2022-08-21T14:34:32.984Z,4.22
2022-08-21T14:37:02.707Z,7.07
2022-08-21T14:39:29.458Z,4.30
2022-08-21T14:41:58.235Z,6.20
2022-08-21T14:44:24.923Z,6.40
2022-08-21T14:46:55.614Z,4.65
2022-08-21T14:49:27.059Z,2.45
2022-08-21T14:51:57.836Z,3.63
2022-08-21T14:54:30.769Z,3.58
2022-08-21T14:57:00.857Z,6.15
2022-08-21T14:59:27.611Z,4.00
2022-08-21T15:01:54.390Z,5.80
2022-08-21T15:04:21.485Z,4.95
2022-08-21T15:06:48.557Z,5.03
2022-08-21T15:09:15.602Z,4.70
2022-08-21T15:11:43.370Z,6.20
2022-08-21T15:14:12.859Z,9.65
2022-08-21T15:16:39.970Z,5.05
2022-08-21T15:19:07.062Z,3.42
2022-08-21T15:21:34.124Z,3.15
2022-08-21T15:24:01.368Z,4.55
2022-08-21T15:26:28.509Z,5.60
2022-08-21T15:28:55.594Z,4.72
2022-08-21T15:31:22.668Z,4.60
2022-08-21T15:33:49.845Z,4.47
2022-08-21T15:36:16.965Z,6.35
2022-08-21T15:38:44.863Z,5.57
2022-08-21T15:41:11.965Z,4.65
2022-08-21T15:43:43.737Z,3.53
2022-08-21T15:46:13.519Z,4.55
2022-08-21T15:48:40.826Z,5.53
2022-08-21T15:51:08.106Z,3.63
2022-08-21T15:53:39.319Z,5.78
2022-08-21T15:56:07.636Z,6.10
2022-08-21T15:58:34.874Z,4.18
2022-08-21T16:01:02.876Z,4.55
2022-08-21T16:03:30.490Z,5.80
2022-08-21T16:05:58.211Z,4.00
2022-08-21T16:08:25.968Z,6.70
2022-08-21T16:10:54.168Z,3.33
2022-08-21T16:13:26.258Z,6.65
2022-08-21T16:15:53.991Z,6.55
2022-08-21T16:18:23.014Z,4.28
2022-08-21T16:20:50.687Z,2.88
2022-08-21T16:23:17.355Z,4.50
2022-08-21T16:25:45.151Z,5.72
2022-08-21T16:28:15.667Z,4.32
2022-08-21T16:30:44.388Z,7.03
2022-08-21T16:33:17.708Z,6.45
2022-08-21T16:35:44.893Z,8.15
2022-08-21T16:38:11.962Z,6.63
2022-08-21T16:40:39.013Z,4.65
2022-08-21T16:43:06.207Z,6.00
2022-08-21T16:45:33.519Z,7.45
2022-08-21T16:48:01.170Z,6.60
2022-08-21T16:50:27.919Z,4.05
2022-08-21T16:52:54.710Z,4.47
2022-08-21T16:55:21.431Z,4.55
2022-08-21T16:57:48.234Z,4.03
2022-08-21T17:00:15.753Z,5.25
2022-08-21T17:02:49.304Z,5.13
2022-08-21T17:05:17.231Z,4.63
2022-08-21T17:07:45.162Z,5.32
2022-08-21T17:10:14.438Z,5.05
2022-08-21T17:12:43.305Z,3.30
2022-08-21T17:15:21.378Z,5.65
2022-08-21T17:17:49.342Z,5.32
2022-08-21T17:20:16.508Z,3.40
2022-08-21T17:22:43.836Z,5.00
2022-08-21T17:25:10.632Z,5.78
2022-08-21T17:27:37.884Z,4.25
2022-08-21T17:30:06.947Z,6.47
2022-08-21T17:32:33.831Z,8.18
2022-08-21T17:35:00.480Z,5.45
2022-08-21T17:37:29.305Z,5.28
2022-08-21T17:39:57.292Z,5.82
2022-08-21T17:42:25.164Z,3.42
2022-08-21T17:44:52.576Z,6.28
2022-08-21T17:47:19.517Z,6.53
2022-08-21T17:49:46.320Z,5.80
2022-08-21T17:52:13.172Z,9.23
2022-08-21T17:54:41.067Z,5.57
2022-08-21T17:57:12.921Z,6.88
2022-08-21T17:59:40.207Z,5.88
2022-08-21T18:02:09.931Z,5.38
2022-08-21T18:04:46.681Z,3.45
2022-08-21T18:07:31.969Z,7.78
2022-08-21T18:10:00.957Z,5.70
2022-08-21T18:12:28.404Z,6.30
2022-08-21T18:14:55.223Z,5.50
2022-08-21T18:17:23.724Z,6.90
2022-08-21T18:19:50.593Z,4.75
2022-08-21T18:22:17.379Z,5.60
2022-08-21T18:24:44.305Z,5.60
2022-08-21T18:27:13.389Z,4.43
2022-08-21T18:29:47.073Z,5.95
2022-08-21T18:32:30.667Z,6.55
2022-08-21T18:34:59.849Z,4.05
2022-08-21T18:37:26.670Z,3.97
2022-08-21T18:39:53.429Z,4.72
2022-08-21T18:42:20.246Z,5.75
2022-08-21T18:44:58.976Z,6.93
2022-08-21T18:47:32.560Z,7.30
2022-08-21T18:49:59.516Z,6.28
2022-08-21T18:52:28.614Z,7.28
2022-08-21T18:54:55.602Z,4.63
2022-08-21T18:57:25.076Z,5.05
2022-08-21T18:59:51.792Z,5.15
2022-08-21T19:02:19.150Z,5.78
2022-08-21T19:04:47.018Z,7.70
2022-08-21T19:07:16.187Z,5.78
2022-08-21T19:12:31.246Z,5.93
2022-08-21T19:14:58.910Z,4.18
2022-08-21T19:17:26.078Z,5.65
2022-08-21T19:20:03.794Z,8.35
2022-08-21T19:22:30.989Z,7.80
2022-08-21T19:24:57.669Z,9.57
2022-08-21T19:27:24.492Z,10.63
2022-08-21T19:29:51.609Z,8.00
2022-08-21T19:32:19.994Z,6.53
2022-08-21T19:34:49.783Z,8.52
2022-08-21T19:37:20.298Z,5.97
2022-08-21T19:39:50.338Z,5.35
2022-08-21T19:42:21.264Z,5.88
2022-08-21T19:44:50.954Z,6.78
2022-08-21T19:47:21.175Z,6.63
2022-08-21T19:49:54.002Z,9.30
2022-08-21T19:52:22.314Z,6.30
2022-08-21T19:54:49.103Z,9.35
2022-08-21T19:57:16.805Z,8.05
2022-08-21T19:59:44.533Z,6.22
2022-08-21T20:02:13.112Z,6.97
2022-08-21T20:04:39.907Z,8.95
2022-08-21T20:07:26.613Z,7.47
2022-08-21T20:10:07.387Z,8.95
2022-08-21T20:12:37.406Z,7.28
2022-08-21T20:17:51.699Z,10.52
2022-08-21T20:20:19.741Z,8.55
2022-08-21T20:22:46.462Z,11.00
2022-08-21T20:25:13.184Z,12.07
2022-08-21T20:27:41.008Z,11.13
2022-08-21T20:30:09.747Z,10.63
2022-08-21T20:32:36.648Z,16.10
2022-08-21T20:35:05.908Z,10.85
2022-08-21T20:37:39.158Z,11.07
2022-08-21T20:40:11.757Z,12.00
2022-08-21T20:42:40.283Z,14.10
2022-08-21T20:45:08.649Z,13.90
2022-08-21T20:47:36.352Z,12.45
2022-08-21T20:53:05.567Z,13.00
2022-08-21T20:55:34.961Z,13.18
2022-08-21T20:58:08.067Z,11.57
2022-08-21T21:00:43.201Z,10.18
2022-08-21T21:03:42.274Z,12.90
2022-08-21T21:06:14.281Z,11.05
2022-08-21T21:08:46.756Z,8.57
2022-08-21T21:11:26.065Z,10.73
2022-08-21T21:13:58.125Z,14.38
2022-08-21T21:16:36.646Z,10.20
2022-08-21T21:19:20.989Z,11.55
2022-08-21T21:22:26.498Z,11.75
2022-08-21T21:25:07.440Z,9.77
2022-08-21T21:27:40.277Z,11.05
2022-08-21T21:30:07.150Z,9.80
2022-08-21T21:32:39.356Z,10.32
2022-08-21T21:35:07.785Z,9.75
2022-08-21T21:37:41.955Z,11.38
2022-08-21T21:40:31.933Z,10.57
2022-08-21T21:43:21.042Z,9.00
2022-08-21T21:46:02.661Z,10.30
2022-08-21T21:48:51.005Z,15.77
2022-08-21T21:51:45.537Z,17.13
2022-08-21T21:54:54.061Z,8.88
2022-08-21T21:57:45.668Z,8.40
2022-08-21T22:00:26.575Z,10.13
2022-08-21T22:03:13.358Z,14.20
2022-08-21T22:06:04.431Z,11.10
2022-08-21T22:09:00.286Z,11.70
2022-08-21T22:11:36.125Z,14.40
2022-08-21T22:14:10.894Z,9.13
2022-08-21T22:16:38.118Z,10.90
2022-08-21T22:19:14.656Z,8.75
2022-08-21T22:21:48.208Z,11.15
2022-08-21T22:24:22.310Z,12.40
2022-08-21T22:26:53.661Z,9.50
2022-08-21T22:29:22.728Z,11.73
2022-08-21T22:32:05.976Z,11.55
2022-08-21T22:37:05.352Z,10.38
2022-08-21T22:39:39.033Z,10.52
2022-08-21T22:42:25.788Z,9.18
2022-08-21T22:44:54.380Z,12.93
2022-08-21T22:47:32.146Z,13.90
2022-08-21T22:50:04.840Z,14.43
2022-08-21T22:52:37.332Z,11.27
2022-08-21T22:55:32.028Z,17.48
2022-08-21T22:58:11.351Z,8.18
2022-08-21T23:01:06.926Z,13.90
2022-08-21T23:03:47.687Z,8.80
2022-08-21T23:06:36.228Z,9.60
2022-08-21T23:09:16.943Z,9.90
2022-08-21T23:11:44.763Z,10.07
2022-08-21T23:14:17.585Z,7.43
2022-08-21T23:17:32.761Z,10.90
2022-08-21T23:20:24.455Z,10.60
2022-08-21T23:23:21.577Z,7.78
2022-08-21T23:26:17.327Z,8.95
2022-08-21T23:29:12.649Z,7.60
2022-08-21T23:32:25.806Z,10.05
2022-08-21T23:38:41.031Z,7.85
2022-08-21T23:41:34.321Z,8.27
2022-08-21T23:44:41.065Z,10.05
2022-08-21T23:47:16.959Z,9.85
2022-08-21T23:49:54.532Z,7.60
2022-08-21T23:52:27.234Z,12.90
2022-08-21T23:55:22.233Z,7.55
2022-08-21T23:58:00.575Z,7.80
